Flight Track Log - Related Links

Times and Time Zones

All times are in EDT time to prevent confusion due to time zone crossing. See the EGF3994 flight status page for this flight to view local times or setup timezone preferences in your user account.

Time Position Orientation Groundspeed Altitude Reporting Facility
EDT Latitude Longitude Course Direction KTS MPH feet Rate Location/Type
Mon 07:14:08 PM 41.9000 -87.8167 90° East 234 269 4,100  Level Chicago TRACON
Mon 07:15:00 PM 41.9614 -87.4805 98° East  Level FlightAware Approximate
Mon 07:15:07 PM 41.8783 -87.7336 109° East 246 283 5,800  Level Chicago Center
Mon 07:16:00 PM 41.9482 -87.3416 95° East  Level FlightAware Approximate
Mon 07:16:09 PM 41.8775 -87.6306 91° East 274 315 8,000  Level Chicago Center
Mon 07:17:00 PM 41.9383 -87.2023 95° East  Level FlightAware Approximate
Mon 07:17:11 PM 41.8769 -87.5206 90° East 292 336 9,800  Level Chicago Center
Mon 07:18:00 PM 41.9333 -87.0627 90° East  Level FlightAware Approximate
Mon 07:18:13 PM 41.8928 -87.4094 79° East 303 349 11,900  Level Chicago Center
Mon 07:19:00 PM 41.9333 -86.9375 90° East  Level FlightAware Approximate
Mon 07:19:15 PM 41.9064 -87.2961 81° East 308 354 13,600  Level Chicago Center
Mon 07:20:17 PM 41.8939 -87.1736 98° East 333 383 14,900 1,500 Climbing Chicago Center
Mon 07:21:19 PM 41.8808 -87.0211 97° East 344 396 16,700 1,645 Climbing Chicago Center
Mon 07:22:21 PM 41.8708 -86.8922 96° East 349 402 18,300 1,403 Climbing Chicago Center
Mon 07:23:23 PM 41.8600 -86.7622 96° East 354 407 19,600 1,122 Climbing Chicago Center
Mon 07:24:24 PM 41.8483 -86.6281 97° East 369 425 20,600 975 Climbing Chicago Center
Mon 07:26:03 PM 41.8275 -86.3931 97° East 378 435 22,200 968 Climbing Indianapolis Center
Mon 07:26:28 PM 41.8225 -86.3375 97° East 394 453 22,600 545 Climbing Chicago Center
Mon 07:27:31 PM 41.8067 -86.1550 97° East 407 468 23,000 194 Climbing Chicago Center
Mon 07:28:32 PM 41.7714 -85.9944 106° East 448 516 23,000  Level Chicago Center
Mon 07:29:34 PM 41.7231 -85.8328 112° Southeast 464 534 23,000  Level Chicago Center
Mon 07:30:36 PM 41.6567 -85.6842 121° Southeast 467 537 23,000 -435 Level Chicago Center
Mon 07:31:38 PM 41.5533 -85.5842 144° Southeast 477 549 22,100 -968 Descending Chicago Center
Mon 07:32:40 PM 41.4142 -85.4903 153° Southeast 478 550 21,000 -532 Descending Chicago Center
Mon 07:33:42 PM 41.3017 -85.4094 152° Southeast 468 539 21,000  Level Chicago Center
Mon 07:34:44 PM 41.2153 -85.2917 134° Southeast 454 522 21,000 -290 Level Chicago Center
Mon 07:35:46 PM 41.1300 -85.1719 133° Southeast 449 517 20,400 -1,016 Descending Chicago Center
Mon 07:36:48 PM 41.0447 -85.0547 134° Southeast 445 512 18,900 -1,597 Descending Chicago Center
Mon 07:37:50 PM 40.9467 -84.9214 134° Southeast 429 494 17,100 -1,548 Descending Chicago Center
Mon 07:38:52 PM 40.8675 -84.8125 134° Southeast 417 480 15,700 -1,016 Descending Chicago Center
Mon 07:39:54 PM 40.7878 -84.7083 135° Southeast 409 471 15,000 -339 Descending Chicago Center
Mon 07:40:56 PM 40.7106 -84.6031 134° Southeast 403 464 15,000 -330 Level Chicago Center
Mon 07:41:25 PM 40.6731 -84.5539 135° Southeast 400 460 14,500 -1,146 Descending Indianapolis Center
Mon 07:42:25 PM 40.5814 -84.4325 135° Southeast 399 459 13,300 -1,091 Descending Indianapolis Center
Mon 07:43:26 PM 40.4911 -84.3569 148° Southeast 394 453 12,300 -960 Descending Indianapolis Center
Mon 07:44:30 PM 40.3872 -84.3131 162° South 382 440 11,300 -960 Descending Indianapolis Center
Mon 07:45:31 PM 40.2958 -84.2544 154° Southeast 367 422 10,300 -1,024 Descending Indianapolis Center
Mon 07:46:33 PM 40.2267 -84.1856 143° Southeast 315 362 9,200 -1,452 Descending Indianapolis Center
Mon 07:47:35 PM 40.1614 -84.1203 143° Southeast 298 343 7,300 -1,282 Descending Indianapolis Center
Mon 07:48:30 PM 40.1075 -84.0647 142° Southeast 234 269 6,700 -724 Descending Indianapolis Center
Mon 07:49:31 PM 40.0569 -84.0119 141° Southeast 192 221 5,900 -931 Descending Indianapolis Center
Mon 07:50:26 PM 40.0167 -84.0175 186° South 175 201 4,900 -1,091 Descending Indianapolis Center

Login

Don't have an account? Register now (free) for customized features, flight alerts, and more!